Portada
METAR-TAF:

METAR-TAF

Aeroports :

Lanseria, Sud-àfrica

latitud: 25-56S, longitud: 027-56E, altitud: 1377 m

Observació

L'informe es va fer fa 39 minuts, a les 14:00 UTC
Vent 5 kt del Nord/Nord-Oest, variant entre Oest/Nord-Oest i Nord-Est
Temperatura 20°C
Humitat 35%
Pressió 1027 hPa
Visibilitat 10 km o més
sense núvols per sota de 1500 mi sense presència de cumulonimbus.

METAR: FALA 051400Z 33005KT 290V050 CAVOK 20/04 Q1027 NOSIG

Hora: 16:39 (14:39 UTC)

Pronòstic

L'informe es va fer fa 4 hores i 39 minuts, a les 10:00 UTC
Pronòstic vàlid del 05 a les 12 UTC al 06 a les 12 UTC
Vent 3 kt amb direcció variable
Visibilitat 10 km o més
sense núvols per sota de 1500 mi sense presència de cumulonimbus.

TAF: FALA 051000Z 0512/0612 VRB03KT CAVOK TX21/0513Z TN05/0604Z

Observacions i pronòstics meteorològics de més de 4000 aeroports (METAR i TAF).

Les estacions disponibles són els punts grocs i vermells al mapa.

Posi el ratolí al punt desitjat per veure el nom de l'estació.

Feu clic per veure les observacions i els pronòstics meteorològics.

Per canviar el mapa: feu clic els botons verds amb una creu de color negre per apropar; al botó verd amb un guió per allunyar la imatge; o en les fletxes verdes per a mapes adjacents.


METAR-TAF: